Baltic, SD (57003)

3:46 AM CST on December 28, 2014 (GMT -0600)
477th | Change Station
CLOSE
Current Station
Personal Weather Station
Location: Baltic, SD
Elevation: 1562 ft
Nearby Weather Stations

Elev 1562 ft 43.71 °N, 96.67 °W | Updated 5 minutes ago

Partly Cloudy
Partly Cloudy
6.1 °F
Feels Like 6 °F
N
1.7
Wind Variable Wind from SW

Today
High -- | Low -- °F
--% Chance of Precip.
Yesterday
High -- | Low -- °F
Precip. -- in
8:00 AM 4:57 PM
Waxing Crescent, 46% visible
Pressure 30.18 in
Visibility 9.0 miles
Clouds Clear
Windchill 6 °F
Dew Point 5 °F
Humidity 96%
Rainfall 0.00 in
Snow Depth Not available.
UV 0 out of 12
Pollen .10 out of 12
Air Quality Not available.
Flu Activity Not available.
METAR KFSD 280856Z AUTO 00000KT 9SM CLR M17/M18 A3008 RMK AO2 SLP218 T11671183 55007

More Conditions Fewer Conditions

Pressure 30.18 in
Visibility 9.0 miles
Clouds Clear
Windchill 6 °F
Dew Point 5 °F
Humidity 96%
Rainfall 0.00 in
Snow Depth Not available.
UV 0 out of 12
Pollen .10 out of 12
Air Quality Not available.
Flu Activity Not available.
METAR KFSD 280856Z AUTO 00000KT 9SM CLR M17/M18 A3008 RMK AO2 SLP218 T11671183 55007

More Conditions Fewer Conditions

10-Day Weather Forecast

Almanac

Astronomy

Dec. 28, 2014 Rise Set
Actual Time
Civil Twilight
Nautical Twilight
Astronomical Twilight
Moon
Length of Visible Light
Length of Day
Tomorrow will be .
, % of the Moon is Illuminated

Today's Extremes

State Highs State Lows

Community

WunderPhotos

Upload Photos

1,781,207 photos uploaded!

WunderBlogs® & News

Nearby

Air Quality

  Air Quality AQ Index Pollutant
Not available.

Snow Depth

Station Depth Elevation

Earthquake Activity

City Distance Mag. Time & Date
Minimum magnitude displayed is 2.5.

Coastal Water Temperatures

Place Temperature

Nearby Weather Stations